createdAt,value
2019-04-29T00:00:52.209Z,5.47
2019-04-29T00:03:22.697Z,4.13
2019-04-29T00:05:52.477Z,3.90
2019-04-29T00:08:22.426Z,4.63
2019-04-29T00:10:52.221Z,4.70
2019-04-29T00:13:22.202Z,4.50
2019-04-29T00:16:09.756Z,3.80
2019-04-29T00:19:01.680Z,4.40
2019-04-29T00:21:31.358Z,4.13
2019-04-29T00:24:04.145Z,4.60
2019-04-29T00:26:32.762Z,3.93
2019-04-29T00:29:02.473Z,4.00
2019-04-29T00:31:32.074Z,5.10
2019-04-29T00:34:01.768Z,4.20
2019-04-29T00:36:36.481Z,5.00
2019-04-29T00:39:35.073Z,4.17
2019-04-29T00:42:26.905Z,4.30
2019-04-29T00:44:56.565Z,4.60
2019-04-29T00:47:26.172Z,5.17
2019-04-29T00:49:55.930Z,5.10
2019-04-29T00:52:25.605Z,5.10
2019-04-29T00:55:01.212Z,5.17
2019-04-29T00:57:30.944Z,5.70
2019-04-29T01:00:00.778Z,5.40
2019-04-29T01:02:31.157Z,4.60
2019-04-29T01:05:09.029Z,5.10
2019-04-29T01:07:39.293Z,5.10
2019-04-29T01:10:10.042Z,5.20
2019-04-29T01:12:39.916Z,5.23
2019-04-29T01:15:09.968Z,4.40
2019-04-29T01:17:39.598Z,4.97
2019-04-29T01:20:09.558Z,4.80
2019-04-29T01:22:39.129Z,4.80
2019-04-29T01:25:09.322Z,4.60
2019-04-29T01:27:44.642Z,5.00
2019-04-29T01:31:12.351Z,5.00
2019-04-29T01:33:42.426Z,4.60
2019-04-29T01:36:40.483Z,4.87
2019-04-29T01:39:13.308Z,5.50
2019-04-29T01:41:52.267Z,5.33
2019-04-29T01:44:22.399Z,6.20
2019-04-29T01:47:48.140Z,7.03
2019-04-29T01:50:17.811Z,8.00
2019-04-29T01:52:47.583Z,10.63
2019-04-29T01:55:17.439Z,10.03
2019-04-29T01:57:47.185Z,12.00
2019-04-29T02:00:17.857Z,11.83
2019-04-29T02:02:47.496Z,12.30
2019-04-29T02:05:17.501Z,11.50
2019-04-29T02:07:47.308Z,13.27
2019-04-29T02:10:31.451Z,12.00
2019-04-29T02:13:01.290Z,11.40
2019-04-29T02:15:31.323Z,12.50
2019-04-29T02:18:00.995Z,11.63
2019-04-29T02:20:30.944Z,11.87
2019-04-29T02:23:30.421Z,11.63
2019-04-29T02:26:00.162Z,11.87
2019-04-29T02:28:30.001Z,12.07
2019-04-29T02:31:19.683Z,12.70
2019-04-29T02:33:49.643Z,11.60
2019-04-29T02:36:20.497Z,12.00
2019-04-29T02:39:05.486Z,12.47
2019-04-29T02:41:43.078Z,12.70
2019-04-29T02:44:14.133Z,10.97
2019-04-29T02:46:44.102Z,11.07
2019-04-29T02:49:15.123Z,11.37
2019-04-29T02:51:51.841Z,12.10
2019-04-29T02:54:23.490Z,11.90
2019-04-29T02:57:08.348Z,11.50
2019-04-29T02:59:43.543Z,10.40
2019-04-29T03:02:26.907Z,10.40
2019-04-29T03:05:09.281Z,10.27
2019-04-29T03:07:39.301Z,10.80
2019-04-29T03:10:09.855Z,9.80
2019-04-29T03:12:40.374Z,9.77
2019-04-29T03:15:11.936Z,9.77
2019-04-29T03:17:42.292Z,9.70
2019-04-29T03:20:21.469Z,9.30
2019-04-29T03:22:53.505Z,9.30
2019-04-29T03:25:23.427Z,8.67
2019-04-29T03:27:55.044Z,10.20
2019-04-29T03:30:24.826Z,10.50
2019-04-29T03:32:54.994Z,10.03
2019-04-29T03:35:25.396Z,11.07
2019-04-29T03:37:55.429Z,11.30
2019-04-29T03:40:25.531Z,10.27
2019-04-29T03:42:55.866Z,9.70
2019-04-29T03:45:26.115Z,11.17
2019-04-29T03:47:56.064Z,10.30
2019-04-29T03:50:25.909Z,10.67
2019-04-29T03:52:55.621Z,11.70
2019-04-29T03:55:39.108Z,13.10
2019-04-29T03:57:58.641Z,12.77
2019-04-29T04:00:28.940Z,13.30
2019-04-29T04:03:23.647Z,12.53
2019-04-29T04:06:19.765Z,13.00
2019-04-29T04:09:05.825Z,13.97
2019-04-29T04:11:29.231Z,15.37
2019-04-29T04:13:59.076Z,14.30
2019-04-29T04:16:49.299Z,15.87
2019-04-29T04:19:21.687Z,14.20
2019-04-29T04:21:51.612Z,13.30
2019-04-29T04:24:21.233Z,15.27
2019-04-29T04:26:51.217Z,15.43
2019-04-29T04:29:20.842Z,15.00
2019-04-29T04:31:50.798Z,15.23
2019-04-29T04:34:20.400Z,15.13
2019-04-29T04:36:50.044Z,15.50
2019-04-29T04:39:26.721Z,15.47
2019-04-29T04:41:56.725Z,14.57
2019-04-29T04:44:45.470Z,16.10
2019-04-29T04:47:15.224Z,16.23
2019-04-29T04:49:45.204Z,15.80
2019-04-29T04:52:15.146Z,15.33
2019-04-29T04:54:46.644Z,14.80
2019-04-29T04:57:17.183Z,16.60
2019-04-29T04:59:47.084Z,16.40
2019-04-29T05:02:16.909Z,15.90
2019-04-29T05:04:46.574Z,16.60
2019-04-29T05:07:16.618Z,16.63
2019-04-29T05:09:46.742Z,17.10
2019-04-29T05:12:16.391Z,16.37
2019-04-29T05:14:46.577Z,18.43
2019-04-29T05:17:16.236Z,17.23
2019-04-29T05:19:46.235Z,16.47
2019-04-29T05:22:16.118Z,16.83
2019-04-29T05:24:46.138Z,16.10
2019-04-29T05:27:16.176Z,17.30
2019-04-29T05:29:45.928Z,17.00
2019-04-29T05:32:16.861Z,17.10
2019-04-29T05:34:48.728Z,17.97
2019-04-29T05:37:40.848Z,16.10
2019-04-29T05:40:10.858Z,17.60
2019-04-29T05:42:40.729Z,16.60
2019-04-29T05:45:19.120Z,15.10
2019-04-29T05:47:57.054Z,16.33
2019-04-29T05:50:42.819Z,17.03
2019-04-29T05:53:34.623Z,15.80
2019-04-29T05:56:04.330Z,16.53
2019-04-29T05:58:37.921Z,18.23
2019-04-29T06:01:10.556Z,17.43
2019-04-29T06:03:40.243Z,16.20
2019-04-29T06:06:12.282Z,18.03
2019-04-29T06:08:41.414Z,18.57
2019-04-29T06:11:11.062Z,18.80
2019-04-29T06:13:41.021Z,19.10
2019-04-29T06:16:10.874Z,18.50
2019-04-29T06:18:41.361Z,18.10
2019-04-29T06:21:11.144Z,16.93
2019-04-29T06:23:41.134Z,18.67
2019-04-29T06:26:11.023Z,19.10
2019-04-29T06:28:40.956Z,19.50
2019-04-29T06:31:10.850Z,18.40
2019-04-29T06:33:41.462Z,19.20
2019-04-29T06:36:11.340Z,20.20
2019-04-29T06:38:41.454Z,18.13
2019-04-29T06:41:11.377Z,20.30
2019-04-29T06:43:41.229Z,19.60
2019-04-29T06:46:11.060Z,19.57
2019-04-29T06:48:40.860Z,20.37
2019-04-29T06:51:10.630Z,20.33
2019-04-29T06:53:41.643Z,20.40
2019-04-29T06:56:12.065Z,19.97
2019-04-29T06:58:42.019Z,20.93
2019-04-29T07:01:11.956Z,20.57
2019-04-29T07:03:41.872Z,21.57
2019-04-29T07:06:11.547Z,20.97
2019-04-29T07:08:42.013Z,21.03
2019-04-29T07:11:11.998Z,20.00
2019-04-29T07:13:41.735Z,20.63
2019-04-29T07:16:11.400Z,20.10
2019-04-29T07:18:48.292Z,20.93
2019-04-29T07:21:13.122Z,21.60
2019-04-29T07:23:43.207Z,22.20
2019-04-29T07:26:13.115Z,21.80
2019-04-29T07:28:42.749Z,22.13
2019-04-29T07:31:12.451Z,21.17
2019-04-29T07:33:42.097Z,20.37
2019-04-29T07:36:11.777Z,19.70
2019-04-29T07:38:42.275Z,20.27
2019-04-29T07:41:14.251Z,20.83
2019-04-29T07:43:44.561Z,20.93
2019-04-29T07:46:34.699Z,20.70
2019-04-29T07:49:05.791Z,20.10
2019-04-29T07:51:39.518Z,19.40
2019-04-29T07:54:11.029Z,19.27
2019-04-29T07:56:42.446Z,20.20
2019-04-29T07:59:11.275Z,19.70
2019-04-29T08:01:41.088Z,21.37
2019-04-29T08:04:11.005Z,20.80
2019-04-29T08:06:42.982Z,18.57
2019-04-29T08:09:13.661Z,22.73
2019-04-29T08:11:43.658Z,20.60
2019-04-29T08:14:13.380Z,20.07
2019-04-29T08:16:43.021Z,20.70
2019-04-29T08:19:12.807Z,19.57
2019-04-29T08:21:45.506Z,18.60
2019-04-29T08:24:15.823Z,19.40
2019-04-29T08:26:47.612Z,17.13
2019-04-29T08:29:17.125Z,18.70
2019-04-29T08:31:46.721Z,14.83
2019-04-29T08:34:18.822Z,18.60
2019-04-29T08:36:48.020Z,17.37
2019-04-29T08:39:18.021Z,15.23
2019-04-29T08:41:47.682Z,14.90
2019-04-29T08:44:34.237Z,14.20
2019-04-29T08:47:14.901Z,14.43
2019-04-29T08:49:44.577Z,12.90
2019-04-29T08:52:14.216Z,13.03
2019-04-29T08:54:43.849Z,13.77
2019-04-29T08:57:14.904Z,12.83
2019-04-29T08:59:44.790Z,12.00
2019-04-29T09:02:14.929Z,12.67
2019-04-29T09:04:53.344Z,11.80
2019-04-29T09:07:17.548Z,11.37
2019-04-29T09:09:48.502Z,14.60
2019-04-29T09:12:19.375Z,11.57
2019-04-29T09:14:49.662Z,12.67
2019-04-29T09:17:20.525Z,13.83
2019-04-29T09:19:50.740Z,15.00
2019-04-29T09:22:22.619Z,12.47
2019-04-29T09:25:30.175Z,12.00
2019-04-29T09:28:03.233Z,12.20
2019-04-29T09:30:32.801Z,17.80
2019-04-29T09:33:04.382Z,12.63
2019-04-29T09:35:38.639Z,12.33
2019-04-29T09:38:05.713Z,12.00
2019-04-29T09:40:39.926Z,11.47
2019-04-29T09:43:33.256Z,12.40
2019-04-29T09:46:07.024Z,12.70
2019-04-29T09:48:36.673Z,11.80
2019-04-29T09:51:22.871Z,10.83
2019-04-29T09:53:50.152Z,11.63
2019-04-29T09:56:20.198Z,11.30
2019-04-29T09:58:53.098Z,10.63
2019-04-29T10:01:43.697Z,11.50
2019-04-29T10:04:38.734Z,11.80
2019-04-29T10:07:10.583Z,17.40
2019-04-29T10:09:40.814Z,16.03
2019-04-29T10:12:11.434Z,15.80
2019-04-29T10:14:42.129Z,12.87
2019-04-29T10:17:31.877Z,12.27
2019-04-29T10:20:08.190Z,13.30
2019-04-29T10:22:38.671Z,14.90
2019-04-29T10:25:09.301Z,13.27
2019-04-29T10:27:39.245Z,13.43
2019-04-29T10:30:09.620Z,13.37
2019-04-29T10:32:42.357Z,13.80
2019-04-29T10:35:11.260Z,13.60
2019-04-29T10:37:41.398Z,12.13
2019-04-29T10:40:21.399Z,13.70
2019-04-29T10:43:00.814Z,13.57
2019-04-29T10:45:51.442Z,13.53
2019-04-29T10:48:26.067Z,12.63
2019-04-29T10:50:57.336Z,14.30
2019-04-29T10:53:28.966Z,13.80
2019-04-29T10:56:05.740Z,14.57
2019-04-29T10:58:35.721Z,15.00
2019-04-29T11:01:45.365Z,15.80
2019-04-29T11:04:20.960Z,14.30
2019-04-29T11:06:50.981Z,15.20
2019-04-29T11:09:32.585Z,15.60
2019-04-29T11:12:04.262Z,15.70
2019-04-29T11:14:37.640Z,16.20
2019-04-29T11:17:16.066Z,16.07
2019-04-29T11:19:40.057Z,15.50
2019-04-29T11:22:12.656Z,20.03
2019-04-29T11:25:04.660Z,18.40
2019-04-29T11:27:41.328Z,16.90
2019-04-29T11:30:14.674Z,18.53
2019-04-29T11:32:48.859Z,17.40
2019-04-29T11:35:38.021Z,16.97
2019-04-29T11:38:10.001Z,17.10
2019-04-29T11:40:43.586Z,16.70
2019-04-29T11:43:17.228Z,16.60
2019-04-29T11:45:47.448Z,15.70
2019-04-29T11:48:17.405Z,16.50
2019-04-29T11:51:02.706Z,16.70
2019-04-29T11:53:34.252Z,16.80
2019-04-29T11:56:04.902Z,17.10
2019-04-29T11:59:09.090Z,16.57
2019-04-29T12:01:59.815Z,15.67
2019-04-29T12:04:42.073Z,20.10
2019-04-29T12:07:11.072Z,18.17
2019-04-29T12:10:02.313Z,19.53
2019-04-29T12:12:32.053Z,18.50
2019-04-29T12:15:26.324Z,18.80
2019-04-29T12:18:08.406Z,17.27
2019-04-29T12:21:06.363Z,18.03
2019-04-29T12:23:36.306Z,17.27
2019-04-29T12:26:08.158Z,17.13
2019-04-29T12:28:42.260Z,17.30
2019-04-29T12:31:18.093Z,17.27
2019-04-29T12:33:53.622Z,18.30
2019-04-29T12:36:23.609Z,18.00
2019-04-29T12:39:43.449Z,18.53
2019-04-29T12:42:18.745Z,17.70
2019-04-29T12:45:22.819Z,17.83
2019-04-29T12:47:52.654Z,18.30
2019-04-29T12:50:23.135Z,18.60
2019-04-29T12:52:56.178Z,18.50
2019-04-29T12:55:44.948Z,18.40
2019-04-29T12:58:08.633Z,18.80
2019-04-29T13:00:47.394Z,17.87
2019-04-29T13:03:39.268Z,18.13
2019-04-29T13:06:23.665Z,17.83
2019-04-29T13:08:54.144Z,18.13
2019-04-29T13:11:37.557Z,18.03
2019-04-29T13:14:01.588Z,17.73
2019-04-29T13:16:57.097Z,17.60
2019-04-29T13:19:39.490Z,17.57
2019-04-29T13:22:10.464Z,17.20
2019-04-29T13:24:42.684Z,17.43
2019-04-29T13:27:16.235Z,17.40
2019-04-29T13:29:43.905Z,16.63
2019-04-29T13:32:14.179Z,17.60
2019-04-29T13:34:45.733Z,16.40
2019-04-29T13:37:18.964Z,16.00
2019-04-29T13:39:47.279Z,17.20
2019-04-29T13:42:17.143Z,16.30
2019-04-29T13:45:06.288Z,15.17
2019-04-29T13:47:50.327Z,16.00
2019-04-29T13:50:38.994Z,17.10
2019-04-29T13:52:55.428Z,16.07
2019-04-29T13:55:47.317Z,15.83
2019-04-29T13:57:56.784Z,16.80
2019-04-29T14:00:36.605Z,16.17
2019-04-29T14:03:11.634Z,15.67
2019-04-29T14:05:41.756Z,15.77
2019-04-29T14:08:12.105Z,15.90
2019-04-29T14:10:41.994Z,14.37
2019-04-29T14:13:16.271Z,15.27
2019-04-29T14:15:43.251Z,14.43
2019-04-29T14:18:13.742Z,14.17
2019-04-29T14:20:47.334Z,11.17
2019-04-29T14:23:15.294Z,10.33
2019-04-29T14:25:45.217Z,10.87
2019-04-29T14:28:15.381Z,10.77
2019-04-29T14:30:47.685Z,10.00
2019-04-29T14:33:19.343Z,9.77
2019-04-29T14:35:55.874Z,10.93
2019-04-29T14:38:25.446Z,11.10
2019-04-29T14:40:55.221Z,11.13
2019-04-29T14:43:44.521Z,9.90
2019-04-29T14:46:22.861Z,10.17
2019-04-29T14:49:17.849Z,9.97
2019-04-29T14:51:47.518Z,9.90
2019-04-29T14:54:17.475Z,10.07
2019-04-29T14:56:47.107Z,10.03
2019-04-29T14:59:17.904Z,8.40
2019-04-29T15:01:53.388Z,9.57
2019-04-29T15:04:25.296Z,9.70
2019-04-29T15:06:55.126Z,9.80
2019-04-29T15:09:25.266Z,9.37
2019-04-29T15:12:23.905Z,8.60
2019-04-29T15:15:08.866Z,9.50
2019-04-29T15:17:57.869Z,9.63
2019-04-29T15:20:45.124Z,9.90
2019-04-29T15:23:27.916Z,9.53
2019-04-29T15:25:46.476Z,9.67
2019-04-29T15:28:18.770Z,10.60
2019-04-29T15:30:48.042Z,9.80
2019-04-29T15:33:17.697Z,8.13
2019-04-29T15:35:47.848Z,8.30
2019-04-29T15:38:17.525Z,8.70
2019-04-29T15:40:47.499Z,8.03
2019-04-29T15:43:17.915Z,9.30
2019-04-29T15:45:49.233Z,9.73
2019-04-29T15:48:19.089Z,8.53
2019-04-29T15:50:49.314Z,8.77
2019-04-29T15:53:19.203Z,9.73
2019-04-29T15:55:49.182Z,8.10
2019-04-29T15:58:22.486Z,9.33
2019-04-29T16:00:50.732Z,9.17
2019-04-29T16:03:20.807Z,9.10
2019-04-29T16:06:20.621Z,9.10
2019-04-29T16:08:49.868Z,9.30
2019-04-29T16:11:37.246Z,8.17
2019-04-29T16:14:10.935Z,8.60
2019-04-29T16:16:42.685Z,8.77
2019-04-29T16:19:13.224Z,8.40
2019-04-29T16:21:43.846Z,7.63
2019-04-29T16:24:26.251Z,9.37
2019-04-29T16:26:45.887Z,8.53
2019-04-29T16:29:17.839Z,9.13
2019-04-29T16:31:48.945Z,9.37
2019-04-29T16:34:19.290Z,7.60
2019-04-29T16:36:49.764Z,7.57
2019-04-29T16:39:20.560Z,8.53
2019-04-29T16:42:09.551Z,7.27
2019-04-29T16:44:41.022Z,6.43
2019-04-29T16:47:13.103Z,7.20
2019-04-29T16:49:44.766Z,6.90
2019-04-29T16:52:16.372Z,6.17
2019-04-29T16:54:46.261Z,6.80
2019-04-29T16:57:17.031Z,7.30
2019-04-29T16:59:47.076Z,8.17
2019-04-29T17:02:19.587Z,6.07
2019-04-29T17:04:48.170Z,7.23
2019-04-29T17:07:18.014Z,5.67
2019-04-29T17:10:00.133Z,5.90
2019-04-29T17:12:38.023Z,5.30
2019-04-29T17:15:23.859Z,5.53
2019-04-29T17:35:08.619Z,4.20
2019-04-29T17:37:41.830Z,4.70
2019-04-29T17:40:15.599Z,5.20
2019-04-29T17:51:38.586Z,5.27
2019-04-29T17:53:40.148Z,4.43
2019-04-29T17:59:41.570Z,4.27
2019-04-29T18:02:35.980Z,4.20
2019-04-29T18:05:34.356Z,3.63
2019-04-29T18:08:14.782Z,4.20
2019-04-29T18:14:46.928Z,3.57
2019-04-29T18:14:51.509Z,3.90
2019-04-29T18:17:26.830Z,4.33
2019-04-29T18:19:58.340Z,4.00
2019-04-29T18:22:54.785Z,3.90
2019-04-29T18:25:36.626Z,4.00
2019-04-29T18:28:06.917Z,4.00
2019-04-29T18:30:38.605Z,3.30
2019-04-29T18:33:08.686Z,3.43
2019-04-29T18:35:43.613Z,3.47
2019-04-29T18:38:13.421Z,2.97
2019-04-29T18:40:44.802Z,3.30
2019-04-29T18:43:19.209Z,3.33
2019-04-29T18:58:50.242Z,3.53
2019-04-29T18:59:30.700Z,3.57
2019-04-29T19:01:54.888Z,3.63
2019-04-29T19:04:53.497Z,3.40
2019-04-29T19:07:21.556Z,3.40
2019-04-29T19:09:51.373Z,3.30
2019-04-29T19:12:22.200Z,3.10
2019-04-29T19:14:51.888Z,3.30
2019-04-29T19:17:22.208Z,3.80
2019-04-29T19:19:56.200Z,3.20
2019-04-29T19:22:25.959Z,3.07
2019-04-29T19:24:55.866Z,2.63
2019-04-29T19:27:26.030Z,3.10
2019-04-29T19:29:56.992Z,3.50
2019-04-29T19:32:27.149Z,3.20
2019-04-29T19:34:58.386Z,3.20
2019-04-29T19:37:32.283Z,2.93
2019-04-29T19:39:59.763Z,3.00
2019-04-29T19:42:35.353Z,3.23
2019-04-29T19:45:00.847Z,3.30
2019-04-29T19:47:30.420Z,3.17
2019-04-29T19:50:00.309Z,3.27
2019-04-29T19:52:31.719Z,3.20
2019-04-29T19:55:03.354Z,3.07
2019-04-29T19:57:36.206Z,3.17
2019-04-29T20:00:06.603Z,3.20
2019-04-29T20:02:40.972Z,2.90
2019-04-29T20:05:23.983Z,3.00
2019-04-29T20:07:52.164Z,2.47
2019-04-29T20:10:23.221Z,2.93
2019-04-29T20:12:55.609Z,3.13
2019-04-29T20:15:26.026Z,2.67
2019-04-29T20:18:15.687Z,3.33
2019-04-29T20:20:50.880Z,3.27
2019-04-29T20:23:26.296Z,2.53
2019-04-29T20:25:52.486Z,3.00
2019-04-29T20:28:22.524Z,2.87
2019-04-29T20:30:58.451Z,2.90
2019-04-29T20:33:24.343Z,2.77
2019-04-29T20:35:55.995Z,2.97
2019-04-29T20:38:29.684Z,3.10
2019-04-29T20:40:58.391Z,3.20
2019-04-29T20:43:29.566Z,3.60
2019-04-29T20:46:02.327Z,2.90
2019-04-29T20:48:31.619Z,3.10
2019-04-29T20:51:13.118Z,2.90
2019-04-29T20:53:46.080Z,3.20
2019-04-29T20:56:23.747Z,3.00
2019-04-29T20:58:48.784Z,3.73
2019-04-29T21:01:25.537Z,3.80
2019-04-29T21:03:56.745Z,3.13
2019-04-29T21:06:26.668Z,3.30
2019-04-29T21:08:56.392Z,3.70
2019-04-29T21:11:32.853Z,3.20
2019-04-29T21:14:15.704Z,3.10
2019-04-29T21:16:47.257Z,3.77
2019-04-29T21:19:19.549Z,3.30
2019-04-29T21:21:49.350Z,3.50
2019-04-29T21:24:19.227Z,3.33
2019-04-29T21:26:51.502Z,3.70
2019-04-29T21:29:21.321Z,3.77
2019-04-29T21:31:58.353Z,3.50
2019-04-29T21:34:25.527Z,3.47
2019-04-29T21:37:17.622Z,2.80
2019-04-29T21:40:14.635Z,2.90
2019-04-29T21:42:52.286Z,3.30
2019-04-29T21:45:22.274Z,3.53
2019-04-29T21:47:54.399Z,3.07
2019-04-29T21:50:27.171Z,3.37
2019-04-29T21:53:01.701Z,3.10
2019-04-29T21:55:29.351Z,3.60
2019-04-29T21:58:00.173Z,3.57
2019-04-29T22:00:29.946Z,3.50
2019-04-29T22:03:00.829Z,4.10
2019-04-29T22:05:32.840Z,3.23
2019-04-29T22:08:02.495Z,3.87
2019-04-29T22:10:34.568Z,3.80
2019-04-29T22:13:05.048Z,3.97
2019-04-29T22:15:39.043Z,3.53
2019-04-29T22:18:13.480Z,3.93
2019-04-29T22:20:42.241Z,3.50
2019-04-29T22:23:13.262Z,3.50
2019-04-29T22:25:45.793Z,3.07
2019-04-29T22:28:16.096Z,3.10
2019-04-29T22:30:49.922Z,3.40
2019-04-29T22:33:18.686Z,3.50
2019-04-29T22:35:48.707Z,3.40
2019-04-29T22:38:18.911Z,3.10
2019-04-29T22:40:55.066Z,3.70
2019-04-29T22:43:47.292Z,4.00
2019-04-29T22:46:18.453Z,2.90
2019-04-29T22:48:48.733Z,3.60
2019-04-29T22:51:19.125Z,2.97
2019-04-29T22:53:49.033Z,3.43
2019-04-29T22:56:18.974Z,2.80
2019-04-29T22:58:48.594Z,3.43
2019-04-29T23:01:18.322Z,2.80
2019-04-29T23:03:47.951Z,2.70
2019-04-29T23:06:17.660Z,3.47
2019-04-29T23:08:47.315Z,3.30
2019-04-29T23:11:16.970Z,3.27
2019-04-29T23:13:49.029Z,3.20
2019-04-29T23:16:18.322Z,2.90
2019-04-29T23:18:47.977Z,3.47
2019-04-29T23:21:42.880Z,3.83
2019-04-29T23:24:19.900Z,3.73
2019-04-29T23:26:49.568Z,3.40
2019-04-29T23:29:19.281Z,3.20
2019-04-29T23:31:48.979Z,3.20
2019-04-29T23:34:18.909Z,3.20
2019-04-29T23:36:48.874Z,3.27
2019-04-29T23:39:18.792Z,3.07
2019-04-29T23:41:48.665Z,2.90
2019-04-29T23:44:18.298Z,3.00
2019-04-29T23:46:47.979Z,3.53
2019-04-29T23:49:17.589Z,3.50
2019-04-29T23:51:47.239Z,3.33
2019-04-29T23:54:17.056Z,3.50
2019-04-29T23:57:06.293Z,3.10
2019-04-29T23:59:37.708Z,3.10
